Terminal Aerodrome Forecast
Issued by NWS

Home | Current Version | Previous Version | Text Only | Print | Product List | Glossary On
Versions: 1 2 3 4 5 6 7 8 9 10 11 12 13 14 15 16 17 18
000
FTUS41 KBGM 080540
TAFELM
TAF
KELM 080540Z 0806/0906 27006KT 5SM BR SCT025 BKN060
     FM080800 31006KT P6SM OVC015
      TEMPO 0808/0811 4SM -SHRA BR
     FM081400 31008KT P6SM BKN020
     FM081700 01005KT P6SM FEW035 SCT200=

USA.gov is the U.S. government's official web portal to all federal, state and local government web resources and services.